Time;durP1;ratioP1;P1;durP2;ratioP2;P2;SDS_P1;SDS_P2;PMS_P1;PMS_P2;Temp;Humidity;BMP_temperature;BMP_pressure;BME280_temperature;BME280_humidity;BME280_pressure;Samples;Min_cycle;Max_cycle;Signal;HPM_P1;HPM_P2
2023/03/04 00:00:33;;;;;;;2.40;0.70;;;25.60;99.90;;;;;;5079638;28;20192;-78
2023/03/04 00:03:04;;;;;;;4.45;0.70;;;25.70;99.90;;;;;;5082965;28;20204;-78
2023/03/04 00:05:36;;;;;;;3.53;0.90;;;25.70;99.90;;;;;;5073210;28;20196;-78
2023/03/04 00:08:07;;;;;;;2.78;0.63;;;25.70;99.90;;;;;;5072661;28;20188;-78
2023/03/04 00:10:38;;;;;;;4.05;0.85;;;25.80;99.90;;;;;;5072917;28;20199;-78
2023/03/04 00:13:09;;;;;;;4.50;1.05;;;25.80;99.90;;;;;;5089036;28;20528;-78
2023/03/04 00:15:42;;;;;;;5.43;1.02;;;25.80;99.90;;;;;;5080912;28;20655;-77
2023/03/04 00:18:13;;;;;;;3.28;1.00;;;25.90;99.90;;;;;;5090093;28;20230;-77
2023/03/04 00:20:45;;;;;;;3.75;0.63;;;25.90;99.90;;;;;;5090906;28;20195;-77
2023/03/04 00:23:16;;;;;;;2.45;0.70;;;26.00;99.90;;;;;;5092547;28;20203;-76
2023/03/04 00:25:47;;;;;;;4.68;0.70;;;26.10;99.90;;;;;;5086724;28;20192;-77
2023/03/04 00:28:18;;;;;;;5.22;1.10;;;26.20;99.90;;;;;;5084724;28;20574;-77
2023/03/04 00:30:51;;;;;;;4.70;1.88;;;26.20;99.90;;;;;;5075467;28;20206;-76
2023/03/04 00:33:22;;;;;;;3.92;1.92;;;26.30;99.90;;;;;;5087151;28;20670;-78
2023/03/04 00:35:53;;;;;;;3.67;1.33;;;26.20;99.90;;;;;;5084111;28;20239;-79
2023/03/04 00:38:25;;;;;;;3.40;1.05;;;26.20;99.90;;;;;;5085762;28;20227;-78
2023/03/04 00:40:56;;;;;;;3.25;0.70;;;26.20;99.90;;;;;;5092258;28;20196;-78
2023/03/04 00:43:27;;;;;;;3.55;1.08;;;26.20;99.90;;;;;;5084801;28;20196;-77
2023/03/04 00:46:00;;;;;;;4.28;1.10;;;26.30;99.90;;;;;;5087553;28;20198;-77
2023/03/04 00:48:31;;;;;;;1.88;0.80;;;26.30;99.90;;;;;;5083349;28;20254;-77
2023/03/04 00:51:03;;;;;;;2.22;0.70;;;26.30;99.90;;;;;;5081746;28;20206;-77
2023/03/04 00:53:34;;;;;;;3.70;1.35;;;26.30;99.90;;;;;;5091677;28;20195;-77
2023/03/04 00:56:05;;;;;;;2.20;0.70;;;26.30;99.90;;;;;;5075721;28;20223;-77
2023/03/04 00:58:36;;;;;;;3.20;0.73;;;26.30;99.90;;;;;;5073872;28;20223;-77
2023/03/04 01:01:09;;;;;;;2.38;0.60;;;26.30;99.90;;;;;;5084921;28;20188;-75
2023/03/04 01:03:41;;;;;;;1.88;0.65;;;26.30;99.90;;;;;;5084176;28;20204;-76
2023/03/04 01:06:12;;;;;;;2.97;0.55;;;26.30;99.90;;;;;;5077767;28;20567;-78
2023/03/04 01:08:43;;;;;;;3.20;0.70;;;26.30;99.90;;;;;;5075132;28;20651;-77
2023/03/04 01:11:14;;;;;;;2.58;0.70;;;26.30;99.90;;;;;;5082358;28;20203;-78
2023/03/04 01:13:45;;;;;;;2.70;0.90;;;26.30;99.90;;;;;;5089796;28;20195;-75
2023/03/04 01:16:18;;;;;;;5.20;1.00;;;26.30;99.90;;;;;;5090995;28;20199;-77
2023/03/04 01:18:49;;;;;;;5.03;1.15;;;26.30;99.90;;;;;;5087485;28;20706;-77
2023/03/04 01:21:20;;;;;;;6.63;0.90;;;26.40;99.90;;;;;;5089582;28;20646;-79
2023/03/04 01:23:52;;;;;;;2.75;0.82;;;26.40;99.90;;;;;;5079830;28;20566;-78
2023/03/04 01:26:23;;;;;;;4.78;2.00;;;26.40;99.90;;;;;;5071302;28;20207;-77
2023/03/04 01:28:54;;;;;;;4.55;1.80;;;26.40;99.90;;;;;;5075750;28;20206;-76
2023/03/04 01:31:27;;;;;;;3.95;1.00;;;26.40;99.90;;;;;;5071480;28;20658;-78
2023/03/04 01:33:58;;;;;;;2.40;0.60;;;26.40;99.90;;;;;;5077148;28;20196;-78
2023/03/04 01:36:31;;;;;;;6.03;1.27;;;26.40;99.90;;;;;;5073170;28;20590;-74
2023/03/04 01:39:02;;;;;;;4.68;1.27;;;26.50;99.90;;;;;;5080055;28;20222;-77
2023/03/04 01:41:33;;;;;;;2.58;0.70;;;26.50;99.90;;;;;;5073521;28;20192;-77
2023/03/04 01:44:05;;;;;;;3.00;0.60;;;26.40;99.90;;;;;;5069811;28;20722;-78
2023/03/04 01:46:38;;;;;;;3.78;1.10;;;26.50;99.90;;;;;;5074596;28;20659;-77
2023/03/04 01:49:13;;;;;;;4.07;0.80;;;26.60;99.90;;;;;;5071243;28;20433;-77
2023/03/04 01:51:47;;;;;;;4.57;1.17;;;26.50;99.90;;;;;;5070729;28;20195;-78
2023/03/04 01:54:19;;;;;;;4.80;1.10;;;26.60;99.90;;;;;;5079919;28;20222;-76
2023/03/04 01:56:52;;;;;;;2.70;1.10;;;26.60;99.90;;;;;;5070632;28;20194;-76
2023/03/04 01:59:24;;;;;;;2.53;0.88;;;26.60;99.90;;;;;;5073801;28;20708;-77
2023/03/04 02:01:58;;;;;;;2.35;0.80;;;26.60;99.90;;;;;;5095563;28;20204;-73
2023/03/04 02:04:33;;;;;;;2.15;0.80;;;26.70;99.90;;;;;;5078172;28;20202;-76
2023/03/04 02:07:05;;;;;;;1.85;0.60;;;26.80;99.90;;;;;;5072187;28;20562;-76
2023/03/04 02:09:37;;;;;;;2.72;0.70;;;26.80;99.90;;;;;;5082906;28;20203;-75
2023/03/04 02:12:09;;;;;;;2.42;0.80;;;26.90;99.90;;;;;;5087695;28;20195;-75
2023/03/04 02:14:42;;;;;;;2.28;0.70;;;27.00;99.90;;;;;;5079350;28;20588;-76
2023/03/04 02:17:16;;;;;;;3.67;0.55;;;27.00;99.90;;;;;;5070144;28;20203;-77
2023/03/04 02:19:52;;;;;;;2.38;0.68;;;27.00;99.90;;;;;;5071904;28;20281;-76
2023/03/04 02:22:24;;;;;;;2.15;0.57;;;27.00;99.90;;;;;;5070043;28;20203;-76
2023/03/04 02:24:58;;;;;;;4.57;0.80;;;27.10;99.90;;;;;;5076474;28;20188;-77
2023/03/04 02:27:31;;;;;;;1.20;0.60;;;27.10;99.90;;;;;;5085595;28;20270;-77
2023/03/04 02:30:02;;;;;;;2.95;0.82;;;27.30;99.90;;;;;;5086456;28;20195;-75
2023/03/04 02:32:33;;;;;;;4.05;0.60;;;27.40;99.90;;;;;;5072858;28;20200;-76
2023/03/04 02:35:05;;;;;;;2.60;0.80;;;27.40;99.90;;;;;;5080503;28;20223;-76
2023/03/04 02:37:36;;;;;;;1.38;0.57;;;27.40;99.90;;;;;;5073268;28;20226;-75
2023/03/04 02:40:08;;;;;;;3.63;0.65;;;27.40;99.90;;;;;;5079876;28;20208;-77
2023/03/04 02:42:41;;;;;;;3.05;0.60;;;27.40;99.90;;;;;;5071839;28;20192;-76
2023/03/04 02:45:39;;;;;;;2.42;0.65;;;27.30;99.90;;;;;;5071940;28;20196;-75
2023/03/04 02:48:11;;;;;;;4.95;0.90;;;27.30;99.90;;;;;;5079726;28;20274;-76
2023/03/04 02:50:46;;;;;;;3.17;0.73;;;27.30;99.90;;;;;;5084662;28;20200;-75
2023/03/04 02:53:17;;;;;;;2.58;0.50;;;27.20;99.90;;;;;;5085393;28;20206;-76
2023/03/04 02:55:48;;;;;;;2.08;0.50;;;27.20;99.90;;;;;;5089261;28;20191;-76
2023/03/04 02:58:21;;;;;;;2.60;0.50;;;27.30;99.90;;;;;;5090509;28;20219;-75
2023/03/04 03:00:52;;;;;;;8.13;1.00;;;27.40;99.90;;;;;;5087052;28;20253;-77
2023/03/04 03:03:23;;;;;;;2.13;0.70;;;27.30;99.90;;;;;;5071342;28;20200;-75
2023/03/04 03:05:55;;;;;;;4.60;0.80;;;27.40;99.90;;;;;;5077065;28;20200;-76
2023/03/04 03:08:26;;;;;;;1.80;0.57;;;27.60;99.90;;;;;;5073464;28;20713;-76
2023/03/04 03:10:57;;;;;;;2.80;0.60;;;27.70;99.90;;;;;;5091787;28;20201;-75
2023/03/04 03:13:31;;;;;;;2.60;0.88;;;27.80;99.90;;;;;;5084091;28;22845;-77
2023/03/04 03:16:02;;;;;;;3.72;0.70;;;27.90;99.90;;;;;;5087853;28;20206;-76
2023/03/04 03:18:33;;;;;;;3.35;0.98;;;28.00;99.90;;;;;;5085507;28;20227;-76
2023/03/04 03:21:04;;;;;;;4.05;0.60;;;27.90;99.90;;;;;;5071986;28;20197;-77
2023/03/04 03:23:35;;;;;;;1.90;0.70;;;28.00;99.90;;;;;;5072518;28;20200;-76
2023/03/04 03:26:06;;;;;;;2.67;0.55;;;28.10;99.90;;;;;;5069944;28;20212;-76
2023/03/04 03:28:39;;;;;;;2.97;0.63;;;28.00;99.90;;;;;;5078682;28;20683;-76
2023/03/04 03:31:11;;;;;;;4.07;0.90;;;27.80;99.90;;;;;;5089197;28;20198;-75
2023/03/04 03:33:42;;;;;;;2.22;0.73;;;27.70;99.90;;;;;;5087854;28;20360;-76
2023/03/04 03:36:13;;;;;;;2.55;0.57;;;27.70;99.90;;;;;;5081949;28;20575;-76
2023/03/04 03:38:44;;;;;;;2.95;0.60;;;27.60;99.90;;;;;;5076321;28;20242;-76
2023/03/04 03:41:15;;;;;;;3.28;0.60;;;27.50;99.90;;;;;;5082425;28;20195;-76
2023/03/04 03:43:48;;;;;;;3.40;0.80;;;27.30;99.90;;;;;;5074171;28;20658;-75
2023/03/04 03:46:19;;;;;;;3.45;0.70;;;27.20;99.90;;;;;;5076414;28;20222;-76
2023/03/04 03:48:54;;;;;;;5.07;0.70;;;27.20;99.90;;;;;;5078696;28;20203;-75
2023/03/04 03:51:25;;;;;;;2.80;0.80;;;27.10;99.90;;;;;;5082530;28;20202;-76
2023/03/04 03:53:57;;;;;;;1.05;0.50;;;27.10;99.90;;;;;;5075056;28;20203;-75
2023/03/04 03:56:28;;;;;;;2.92;0.60;;;27.00;99.90;;;;;;5079268;28;20191;-75
2023/03/04 03:59:01;;;;;;;3.40;0.93;;;26.90;99.90;;;;;;5090431;28;20239;-75
2023/03/04 04:01:32;;;;;;;2.15;0.60;;;26.90;99.90;;;;;;5081949;28;20206;-76
2023/03/04 04:04:03;;;;;;;2.92;0.70;;;26.80;99.90;;;;;;5081583;28;20235;-75
2023/03/04 04:06:34;;;;;;;2.33;0.60;;;26.70;99.90;;;;;;5075100;28;20207;-75
2023/03/04 04:09:05;;;;;;;5.65;1.08;;;26.70;99.90;;;;;;5076019;28;20635;-74
2023/03/04 04:11:40;;;;;;;5.00;0.73;;;26.70;99.90;;;;;;5076639;28;20584;-76
2023/03/04 04:14:15;;;;;;;1.30;0.50;;;26.50;99.90;;;;;;5074607;28;20286;-76
2023/03/04 04:16:46;;;;;;;2.42;0.60;;;26.50;99.90;;;;;;5092877;28;20195;-77
2023/03/04 04:19:21;;;;;;;3.08;0.60;;;26.50;99.90;;;;;;5086154;28;20223;-75
2023/03/04 04:21:53;;;;;;;5.47;0.73;;;26.50;99.90;;;;;;5079861;28;20627;-76
2023/03/04 04:24:24;;;;;;;3.25;0.73;;;26.50;99.90;;;;;;5093479;28;20564;-76
2023/03/04 04:26:57;;;;;;;4.88;0.82;;;26.60;99.90;;;;;;5092744;28;20198;-77
2023/03/04 04:29:30;;;;;;;2.15;0.60;;;26.60;99.90;;;;;;5073607;28;20199;-76
2023/03/04 04:32:01;;;;;;;1.52;0.63;;;26.70;99.90;;;;;;5090669;28;20646;-76
2023/03/04 04:34:32;;;;;;;2.67;0.55;;;26.80;99.90;;;;;;5092331;28;20658;-75
2023/03/04 04:37:03;;;;;;;4.35;0.82;;;26.90;99.90;;;;;;5076377;28;20595;-75
2023/03/04 04:39:34;;;;;;;3.85;0.60;;;27.00;99.90;;;;;;5085370;28;20223;-75
2023/03/04 04:42:10;;;;;;;4.90;0.95;;;27.10;99.90;;;;;;5082866;28;20222;-76
2023/03/04 04:44:43;;;;;;;2.88;0.70;;;27.10;99.90;;;;;;5072198;28;20206;-75
2023/03/04 04:47:14;;;;;;;5.57;0.93;;;27.10;99.90;;;;;;5074706;28;20206;-75
2023/03/04 04:49:45;;;;;;;2.40;0.70;;;27.00;99.90;;;;;;5086845;28;20585;-76
2023/03/04 04:52:16;;;;;;;3.47;0.85;;;27.00;99.90;;;;;;5083698;28;20226;-76
2023/03/04 04:54:48;;;;;;;3.70;1.00;;;27.00;99.90;;;;;;5072949;28;20206;-76
2023/03/04 04:57:19;;;;;;;4.68;0.70;;;27.10;99.90;;;;;;5081132;28;20196;-76
2023/03/04 04:59:53;;;;;;;1.92;0.57;;;27.10;99.90;;;;;;5080154;28;20219;-76
2023/03/04 05:02:24;;;;;;;2.63;0.73;;;27.10;99.90;;;;;;5083229;28;20565;-77
2023/03/04 05:04:56;;;;;;;2.45;0.82;;;27.20;99.90;;;;;;5088835;28;20662;-77
2023/03/04 05:07:27;;;;;;;1.77;0.55;;;27.20;99.90;;;;;;5086511;28;20646;-76
2023/03/04 05:09:58;;;;;;;3.28;0.80;;;27.00;99.90;;;;;;5095571;28;20199;-78
2023/03/04 05:12:29;;;;;;;1.88;0.60;;;26.80;99.90;;;;;;5078321;28;20690;-75
2023/03/04 05:15:02;;;;;;;2.10;0.70;;;26.80;99.90;;;;;;5071803;28;20200;-76
2023/03/04 05:17:33;;;;;;;4.53;0.60;;;26.90;99.90;;;;;;5085517;28;20202;-76
2023/03/04 05:20:06;;;;;;;3.92;0.60;;;27.00;99.90;;;;;;5088426;28;20232;-76
2023/03/04 05:22:37;;;;;;;4.45;0.80;;;27.10;99.90;;;;;;5080853;28;20198;-75
2023/03/04 05:25:08;;;;;;;3.30;0.80;;;27.20;99.90;;;;;;5091819;28;20195;-76
2023/03/04 05:27:39;;;;;;;2.45;0.73;;;27.30;99.90;;;;;;5080784;28;20196;-76
2023/03/04 05:30:13;;;;;;;3.92;0.75;;;27.30;99.90;;;;;;5088807;28;20217;-76
2023/03/04 05:32:44;;;;;;;4.03;0.80;;;27.30;99.90;;;;;;5083066;28;20608;-76
2023/03/04 05:35:15;;;;;;;4.03;0.80;;;27.40;99.90;;;;;;5075336;28;20224;-77
2023/03/04 05:37:46;;;;;;;2.72;0.70;;;27.30;99.90;;;;;;5086762;28;20210;-77
2023/03/04 05:40:18;;;;;;;3.40;0.80;;;27.30;99.90;;;;;;5081016;28;20257;-76
2023/03/04 05:42:49;;;;;;;3.60;1.00;;;27.30;99.90;;;;;;5084589;28;20677;-75
2023/03/04 05:45:23;;;;;;;1.85;0.60;;;27.40;99.90;;;;;;5085401;28;20634;-75
2023/03/04 05:47:55;;;;;;;3.78;0.80;;;27.50;99.90;;;;;;5082825;28;20641;-75
2023/03/04 05:50:27;;;;;;;2.22;0.65;;;27.60;99.90;;;;;;5088306;28;20199;-76
2023/03/04 05:52:58;;;;;;;1.90;0.65;;;27.60;99.90;;;;;;5078194;28;20195;-75
2023/03/04 05:55:29;;;;;;;6.15;0.80;;;27.80;99.90;;;;;;5082840;28;20207;-75
2023/03/04 05:58:01;;;;;;;4.97;0.90;;;27.90;99.90;;;;;;5071212;28;20195;-76
2023/03/04 06:00:34;;;;;;;2.53;0.80;;;28.00;99.90;;;;;;5088224;28;20242;-75
2023/03/04 06:03:05;;;;;;;4.40;0.90;;;28.10;99.90;;;;;;5075998;28;20669;-75
2023/03/04 06:05:38;;;;;;;4.70;0.90;;;28.20;99.90;;;;;;5090528;28;20772;-74
2023/03/04 06:08:10;;;;;;;3.88;0.98;;;28.10;99.90;;;;;;5085712;28;20218;-76
2023/03/04 06:10:42;;;;;;;3.08;0.77;;;28.30;99.90;;;;;;5085413;28;20207;-76
2023/03/04 06:13:13;;;;;;;5.78;0.90;;;28.40;99.90;;;;;;5081881;28;20724;-77
2023/03/04 06:15:47;;;;;;;6.45;1.35;;;28.70;99.90;;;;;;5090315;28;20203;-78
2023/03/04 06:18:20;;;;;;;4.53;1.00;;;28.70;99.90;;;;;;5075548;28;20199;-78
2023/03/04 06:20:51;;;;;;;5.45;0.90;;;28.80;99.90;;;;;;5073198;28;20224;-78
2023/03/04 06:23:22;;;;;;;3.85;0.93;;;29.10;99.90;;;;;;5091911;28;20207;-78
2023/03/04 06:25:55;;;;;;;1.55;0.80;;;29.20;99.90;;;;;;5091071;28;20199;-78
2023/03/04 06:28:27;;;;;;;4.13;0.80;;;28.70;99.90;;;;;;5091145;28;20188;-78
2023/03/04 06:31:01;;;;;;;3.38;0.80;;;28.50;99.90;;;;;;5069560;28;20200;-78
2023/03/04 06:33:32;;;;;;;2.60;0.70;;;28.50;99.90;;;;;;5089897;28;20670;-78
2023/03/04 06:36:03;;;;;;;4.22;0.80;;;28.30;99.90;;;;;;5078694;28;20226;-78
2023/03/04 06:38:34;;;;;;;6.15;1.10;;;28.10;99.90;;;;;;5076506;28;20195;-77
2023/03/04 06:41:11;;;;;;;4.75;0.95;;;28.20;99.90;;;;;;5078483;28;20559;-78
2023/03/04 06:43:43;;;;;;;5.30;0.93;;;28.60;99.90;;;;;;5084534;28;20190;-78
2023/03/04 06:46:16;;;;;;;4.93;0.90;;;29.00;99.90;;;;;;5086546;28;20211;-78
2023/03/04 06:48:49;;;;;;;4.95;1.02;;;29.10;99.90;;;;;;5074630;28;20192;-78
2023/03/04 06:51:20;;;;;;;6.07;0.90;;;29.40;99.90;;;;;;5088631;28;20187;-78
2023/03/04 06:53:51;;;;;;;3.15;0.80;;;29.60;99.90;;;;;;5070119;28;20196;-78
2023/03/04 06:56:22;;;;;;;4.68;0.75;;;29.70;99.90;;;;;;5082573;28;20195;-78
2023/03/04 06:58:53;;;;;;;5.75;1.25;;;29.60;99.90;;;;;;5084574;28;20199;-78
2023/03/04 07:01:28;;;;;;;3.15;0.80;;;29.80;99.90;;;;;;5089365;28;20202;-77
2023/03/04 07:04:00;;;;;;;3.78;1.00;;;29.90;99.90;;;;;;5077239;28;20199;-77
2023/03/04 07:06:31;;;;;;;4.18;0.95;;;30.20;99.90;;;;;;5077938;28;20199;-77
2023/03/04 07:09:02;;;;;;;3.03;0.80;;;30.10;99.90;;;;;;5072657;28;20203;-78
2023/03/04 07:11:33;;;;;;;2.05;0.70;;;30.10;99.90;;;;;;5082236;28;20574;-78
2023/03/04 07:14:08;;;;;;;3.67;1.00;;;30.30;99.90;;;;;;5086067;28;20203;-77
2023/03/04 07:16:41;;;;;;;3.92;0.82;;;30.20;99.90;;;;;;5088984;28;20194;-76
2023/03/04 07:19:12;;;;;;;3.53;0.80;;;29.60;99.90;;;;;;5094546;28;20211;-78
2023/03/04 07:21:44;;;;;;;3.13;0.80;;;29.10;99.90;;;;;;5074729;28;20203;-78
2023/03/04 07:24:15;;;;;;;4.82;1.00;;;28.60;99.90;;;;;;5083089;28;20195;-78
2023/03/04 07:26:46;;;;;;;4.20;1.00;;;28.20;99.90;;;;;;5086101;28;20222;-77
2023/03/04 07:29:17;;;;;;;3.72;0.90;;;27.90;99.90;;;;;;5084758;28;20270;-76
2023/03/04 07:31:50;;;;;;;2.97;1.00;;;28.20;99.90;;;;;;5091184;28;20195;-77
2023/03/04 07:34:21;;;;;;;2.55;1.00;;;28.50;99.90;;;;;;5074483;28;20254;-77
2023/03/04 07:36:53;;;;;;;3.72;1.27;;;28.80;99.90;;;;;;5084241;28;20207;-77
2023/03/04 07:39:24;;;;;;;3.25;1.00;;;29.10;99.90;;;;;;5091881;28;20260;-78
2023/03/04 07:41:55;;;;;;;4.22;1.10;;;29.10;99.90;;;;;;5075269;28;20192;-79
2023/03/04 07:44:26;;;;;;;3.10;1.10;;;29.00;99.90;;;;;;5081350;28;20207;-78
2023/03/04 07:46:59;;;;;;;3.08;0.90;;;28.60;99.90;;;;;;5089590;28;20194;-78
2023/03/04 07:49:30;;;;;;;4.13;1.60;;;28.40;99.90;;;;;;5087819;28;20212;-79
2023/03/04 07:52:06;;;;;;;3.35;1.17;;;28.10;99.90;;;;;;5092464;28;20236;-78
2023/03/04 07:54:38;;;;;;;3.50;1.10;;;27.70;99.90;;;;;;5083752;28;20647;-79
2023/03/04 07:57:09;;;;;;;3.55;1.00;;;27.50;99.90;;;;;;5081583;28;20248;-78
2023/03/04 07:59:40;;;;;;;2.85;1.15;;;27.40;99.90;;;;;;5091993;28;20212;-78
2023/03/04 08:02:14;;;;;;;3.15;1.00;;;27.10;99.90;;;;;;5077411;28;20719;-79
2023/03/04 08:04:45;;;;;;;2.30;0.90;;;26.90;99.90;;;;;;5088222;28;20196;-78
2023/03/04 08:07:16;;;;;;;3.42;0.90;;;26.70;99.90;;;;;;5072764;28;20204;-78
2023/03/04 08:09:47;;;;;;;3.15;0.77;;;26.60;99.90;;;;;;5082577;28;20214;-78
2023/03/04 08:12:18;;;;;;;2.50;0.70;;;26.50;99.90;;;;;;5077349;28;20629;-77
2023/03/04 08:14:49;;;;;;;2.65;0.80;;;26.30;99.90;;;;;;5093050;28;20195;-78
2023/03/04 08:17:22;;;;;;;3.22;0.80;;;26.20;99.90;;;;;;5092920;28;20205;-77
2023/03/04 08:19:53;;;;;;;2.60;1.00;;;26.10;99.90;;;;;;5099167;28;20239;-76
2023/03/04 08:22:24;;;;;;;5.05;1.10;;;26.00;99.90;;;;;;5081901;28;20278;-76
2023/03/04 08:24:55;;;;;;;3.78;1.33;;;25.90;99.90;;;;;;5076959;28;20223;-77
2023/03/04 08:27:26;;;;;;;5.68;1.50;;;25.90;99.90;;;;;;5075795;28;20658;-78
2023/03/04 08:29:58;;;;;;;3.58;1.30;;;25.80;99.90;;;;;;5082924;28;20196;-78
2023/03/04 08:32:31;;;;;;;5.05;1.15;;;25.70;99.90;;;;;;5072170;28;20203;-78
2023/03/04 08:35:02;;;;;;;4.82;1.30;;;25.70;99.90;;;;;;5072650;28;20613;-78
2023/03/04 08:37:34;;;;;;;4.22;1.08;;;25.60;99.90;;;;;;5086109;28;20191;-78
2023/03/04 08:40:05;;;;;;;5.38;1.20;;;25.60;99.90;;;;;;5091646;28;20611;-78
2023/03/04 08:42:35;;;;;;;5.50;1.60;;;25.60;99.90;;;;;;5079309;28;20192;-78
2023/03/04 08:45:07;;;;;;;3.42;1.40;;;25.50;99.90;;;;;;5073012;28;20215;-79
2023/03/04 08:47:40;;;;;;;3.40;1.77;;;25.50;99.90;;;;;;5082476;28;20571;-78
2023/03/04 08:50:12;;;;;;;4.78;1.35;;;25.40;99.90;;;;;;5091446;28;20203;-78
2023/03/04 08:52:43;;;;;;;2.65;0.90;;;25.40;99.90;;;;;;5090228;28;20199;-78
2023/03/04 08:55:14;;;;;;;3.38;0.80;;;25.30;99.90;;;;;;5090879;28;20195;-78
2023/03/04 08:57:45;;;;;;;5.50;0.98;;;25.20;99.90;;;;;;5075341;28;20282;-77
2023/03/04 09:00:17;;;;;;;2.88;0.90;;;25.30;99.90;;;;;;5073168;28;20224;-77
2023/03/04 09:02:50;;;;;;;3.38;0.98;;;25.20;99.90;;;;;;5072416;28;20204;-78
2023/03/04 09:05:21;;;;;;;2.72;0.80;;;25.20;99.90;;;;;;5084343;28;20203;-77
2023/03/04 09:07:53;;;;;;;3.55;1.08;;;25.20;99.90;;;;;;5077823;28;20402;-76
2023/03/04 09:10:24;;;;;;;3.25;0.70;;;25.20;99.90;;;;;;5080411;28;20275;-77
2023/03/04 09:12:58;;;;;;;2.67;0.80;;;25.20;99.90;;;;;;5078383;28;20558;-77
2023/03/04 09:15:30;;;;;;;4.32;0.80;;;25.10;99.90;;;;;;5078773;28;20653;-77
2023/03/04 09:18:05;;;;;;;2.13;0.75;;;25.10;99.90;;;;;;5089478;28;20199;-78
2023/03/04 09:20:36;;;;;;;3.60;0.75;;;25.10;99.90;;;;;;5080975;28;20225;-72
2023/03/04 09:23:08;;;;;;;2.40;0.73;;;25.10;99.90;;;;;;5092172;28;20195;-76
2023/03/04 09:25:40;;;;;;;3.05;0.80;;;25.00;99.90;;;;;;5071394;28;20219;-77
2023/03/04 09:28:11;;;;;;;3.88;0.90;;;25.00;99.90;;;;;;5083810;28;20200;-77
2023/03/04 09:30:42;;;;;;;2.22;0.70;;;25.00;99.90;;;;;;5072960;28;20706;-77
2023/03/04 09:33:16;;;;;;;2.67;0.68;;;25.00;99.90;;;;;;5083924;28;20203;-77
2023/03/04 09:35:47;;;;;;;2.20;0.60;;;25.00;99.90;;;;;;5077319;28;20239;-77
2023/03/04 09:38:18;;;;;;;1.83;0.65;;;25.00;99.90;;;;;;5070927;28;20200;-76
2023/03/04 09:40:51;;;;;;;2.25;0.70;;;24.90;99.90;;;;;;5070263;28;20227;-77
2023/03/04 09:43:28;;;;;;;3.00;0.80;;;24.90;99.90;;;;;;5073704;28;20218;-77
2023/03/04 09:46:01;;;;;;;2.30;0.80;;;24.90;99.90;;;;;;5070777;28;20203;-77
2023/03/04 09:48:41;;;;;;;5.65;0.90;;;24.90;99.90;;;;;;5083717;28;20218;-77
2023/03/04 09:51:22;;;;;;;3.55;0.95;;;24.80;99.90;;;;;;5081475;28;20195;-77
2023/03/04 09:54:07;;;;;;;4.30;0.80;;;24.80;99.90;;;;;;5084961;28;20195;-77
2023/03/04 09:56:41;;;;;;;4.10;0.82;;;24.80;99.90;;;;;;5089688;28;20191;-78
2023/03/04 09:59:24;;;;;;;3.47;0.68;;;24.80;99.90;;;;;;5091206;28;20199;-75
2023/03/04 10:01:57;;;;;;;3.58;0.60;;;24.80;99.90;;;;;;5089957;28;20226;-76
2023/03/04 10:04:35;;;;;;;2.15;0.70;;;24.80;99.90;;;;;;5088039;28;20200;-77
2023/03/04 10:07:09;;;;;;;3.80;0.88;;;24.80;99.90;;;;;;5080335;28;20191;-77
2023/03/04 10:09:49;;;;;;;3.67;0.90;;;24.80;99.90;;;;;;5075593;28;20669;-77
2023/03/04 10:12:24;;;;;;;4.28;0.90;;;24.80;99.90;;;;;;5089619;28;20201;-77
2023/03/04 10:14:59;;;;;;;4.80;0.80;;;24.70;99.90;;;;;;5090886;28;20195;-77
2023/03/04 10:17:37;;;;;;;3.50;0.90;;;24.70;99.90;;;;;;5089411;28;20195;-77
2023/03/04 10:20:18;;;;;;;2.85;0.60;;;24.70;99.90;;;;;;5084813;28;20218;-77
2023/03/04 10:22:50;;;;;;;3.35;0.50;;;24.70;99.90;;;;;;5070562;28;20199;-77
2023/03/04 10:25:23;;;;;;;4.97;0.82;;;24.70;99.90;;;;;;5083726;28;20215;-76
2023/03/04 10:27:57;;;;;;;2.67;0.60;;;24.70;99.90;;;;;;5076708;28;20200;-77
2023/03/04 10:30:41;;;;;;;3.40;0.75;;;24.70;99.90;;;;;;5086675;28;20591;-78
2023/03/04 10:33:17;;;;;;;3.85;0.65;;;24.70;99.90;;;;;;5069053;28;20196;-77
2023/03/04 10:35:54;;;;;;;1.83;0.63;;;24.70;99.90;;;;;;5069966;28;20227;-78
2023/03/04 10:38:26;;;;;;;1.98;0.60;;;24.60;99.90;;;;;;5073544;28;20191;-78
2023/03/04 10:40:57;;;;;;;4.75;1.05;;;24.70;99.90;;;;;;5078888;28;20268;-77
2023/03/04 10:43:28;;;;;;;4.47;1.02;;;24.70;99.90;;;;;;5089040;28;20203;-77
2023/03/04 10:46:00;;;;;;;3.15;0.70;;;24.70;99.90;;;;;;5070210;28;20196;-77
2023/03/04 10:48:34;;;;;;;3.45;0.70;;;24.60;99.90;;;;;;5087689;28;20234;-78
2023/03/04 10:51:20;;;;;;;2.25;0.60;;;24.60;99.90;;;;;;5088806;28;20203;-78
2023/03/04 10:53:53;;;;;;;1.85;0.57;;;24.60;99.90;;;;;;5094792;28;20195;-78
2023/03/04 10:56:41;;;;;;;3.83;0.55;;;24.60;99.90;;;;;;5093799;28;20199;-78
2023/03/04 10:59:34;;;;;;;2.83;0.63;;;24.60;99.90;;;;;;5094652;28;20228;-78
2023/03/04 11:02:16;;;;;;;3.35;0.70;;;24.60;99.90;;;;;;5088294;28;20227;-78
2023/03/04 11:05:06;;;;;;;3.25;0.68;;;24.50;99.90;;;;;;5095039;28;20213;-77
2023/03/04 11:07:42;;;;;;;2.55;0.80;;;24.50;99.90;;;;;;5092240;28;20565;-77
2023/03/04 11:10:18;;;;;;;1.65;0.50;;;24.60;99.90;;;;;;5094524;28;20195;-78
2023/03/04 11:12:54;;;;;;;2.53;0.70;;;24.50;99.90;;;;;;5077223;28;20200;-78
2023/03/04 11:15:26;;;;;;;3.75;0.90;;;24.50;99.90;;;;;;5073788;28;20191;-78
2023/03/04 11:18:01;;;;;;;4.70;0.70;;;24.50;99.90;;;;;;5079047;28;20187;-78
2023/03/04 11:20:36;;;;;;;2.20;0.88;;;24.50;99.90;;;;;;5086119;28;20720;-78
2023/03/04 11:23:15;;;;;;;1.80;0.60;;;24.50;99.90;;;;;;5076522;28;20225;-77
2023/03/04 11:25:50;;;;;;;2.78;0.70;;;24.40;99.90;;;;;;5080073;28;20690;-78
2023/03/04 11:28:24;;;;;;;4.63;0.80;;;24.40;99.90;;;;;;5102505;28;20650;-77
2023/03/04 11:30:59;;;;;;;2.75;0.95;;;24.40;99.90;;;;;;5090681;28;20192;-76
2023/03/04 11:33:40;;;;;;;3.15;0.90;;;24.40;99.90;;;;;;5075073;28;20210;-77
2023/03/04 11:36:24;;;;;;;2.28;0.88;;;24.30;99.90;;;;;;5073409;28;20231;-77
2023/03/04 11:38:58;;;;;;;4.57;1.10;;;24.30;99.90;;;;;;5073838;28;20196;-76
2023/03/04 11:41:34;;;;;;;2.55;0.80;;;24.30;99.90;;;;;;5073287;28;20235;-77
2023/03/04 11:44:07;;;;;;;3.92;1.00;;;24.30;99.90;;;;;;5093428;28;20195;-77
2023/03/04 11:46:59;;;;;;;1.92;0.73;;;24.30;99.90;;;;;;5093203;28;20203;-77
2023/03/04 11:49:56;;;;;;;2.88;1.05;;;24.30;99.90;;;;;;5082557;28;20211;-76
2023/03/04 11:52:38;;;;;;;1.95;0.75;;;24.30;99.90;;;;;;5091524;28;20613;-77
2023/03/04 11:55:31;;;;;;;1.92;0.70;;;24.30;99.90;;;;;;5084616;28;20195;-78
2023/03/04 11:58:17;;;;;;;2.03;0.63;;;24.30;99.90;;;;;;5089561;28;20199;-77
2023/03/04 12:00:55;;;;;;;2.58;0.88;;;24.30;99.90;;;;;;5090880;28;20223;-77
2023/03/04 12:03:56;;;;;;;2.03;0.70;;;24.20;99.90;;;;;;5074729;28;20204;-77
2023/03/04 12:06:37;;;;;;;3.35;0.73;;;24.30;99.90;;;;;;5078245;28;20196;-77
2023/03/04 12:09:32;;;;;;;2.97;0.80;;;24.30;99.90;;;;;;5087645;28;20215;-78
2023/03/04 12:12:25;;;;;;;2.08;0.60;;;24.20;99.90;;;;;;5096056;28;20192;-77
2023/03/04 12:15:06;;;;;;;5.00;1.00;;;24.30;99.90;;;;;;5085914;28;20258;-75
2023/03/04 12:17:56;;;;;;;2.83;0.60;;;24.20;99.90;;;;;;5074396;28;20196;-78
2023/03/04 12:20:50;;;;;;;3.55;1.10;;;24.20;99.90;;;;;;5079481;28;20203;-77
2023/03/04 12:23:37;;;;;;;3.95;0.70;;;24.20;99.90;;;;;;5084084;28;20196;-78
2023/03/04 12:26:19;;;;;;;1.27;0.55;;;24.20;99.90;;;;;;5081893;28;20219;-77
2023/03/04 12:28:59;;;;;;;2.47;0.85;;;24.20;99.90;;;;;;5094594;28;20198;-77
2023/03/04 12:31:38;;;;;;;2.22;0.90;;;24.20;99.90;;;;;;5101062;28;20210;-74
2023/03/04 12:34:41;;;;;;;3.03;0.90;;;24.10;99.90;;;;;;5096069;28;20206;-76
2023/03/04 12:37:33;;;;;;;2.92;0.70;;;24.10;99.90;;;;;;5089391;28;20683;-77
2023/03/04 12:40:22;;;;;;;1.85;0.70;;;24.10;99.90;;;;;;5091437;28;20202;-78
2023/03/04 12:43:05;;;;;;;4.28;0.90;;;24.10;99.90;;;;;;5093423;28;20242;-77
2023/03/04 12:45:50;;;;;;;2.55;0.88;;;24.10;99.90;;;;;;5086882;28;20199;-78
2023/03/04 12:48:32;;;;;;;2.35;0.65;;;24.10;99.90;;;;;;5076404;28;20227;-77
2023/03/04 12:51:20;;;;;;;3.38;0.80;;;24.10;99.90;;;;;;5076298;28;20200;-80
2023/03/04 12:53:58;;;;;;;5.40;1.10;;;24.10;99.90;;;;;;5089839;28;20643;-76
2023/03/04 12:56:35;;;;;;;3.65;0.80;;;24.00;99.90;;;;;;5073201;28;20219;-78
2023/03/04 12:59:07;;;;;;;2.42;0.70;;;24.00;99.90;;;;;;5073251;28;20207;-77
2023/03/04 13:01:47;;;;;;;4.60;0.80;;;24.00;99.90;;;;;;5080048;28;20223;-77
2023/03/04 13:04:23;;;;;;;4.10;0.82;;;24.00;99.90;;;;;;5080232;28;20202;-78
2023/03/04 13:07:12;;;;;;;2.20;0.70;;;24.00;99.90;;;;;;5074867;28;20196;-77
2023/03/04 13:09:52;;;;;;;3.40;1.00;;;24.00;99.90;;;;;;5074969;28;20200;-78
2023/03/04 13:12:24;;;;;;;5.55;1.95;;;24.00;99.90;;;;;;5091105;28;20210;-78
2023/03/04 13:15:30;;;;;;;7.85;3.83;;;24.00;99.90;;;;;;5093409;28;20198;-79
2023/03/04 13:18:26;;;;;;;8.40;4.97;;;23.90;99.90;;;;;;5080071;28;20206;-78
2023/03/04 13:21:19;;;;;;;9.45;4.85;;;23.90;99.90;;;;;;5074927;28;20196;-78
2023/03/04 13:23:50;;;;;;;7.18;4.68;;;23.90;99.90;;;;;;5076228;28;20200;-77